createdAt,value
2023-05-24T00:12:04.027Z,99916.09
2023-05-24T00:27:06.768Z,99922.56
2023-05-24T00:42:08.740Z,99905.00
2023-05-24T00:57:14.234Z,99904.84
2023-05-24T01:12:47.622Z,99897.09
2023-05-24T01:27:51.080Z,99887.56
2023-05-24T01:43:09.541Z,99879.41
2023-05-24T01:58:13.985Z,99890.19
2023-05-24T02:13:19.993Z,99906.09
2023-05-24T02:28:21.914Z,99920.78
2023-05-24T02:43:23.832Z,99931.84
2023-05-24T02:58:29.370Z,99926.56
2023-05-24T03:13:31.369Z,99929.00
2023-05-24T03:28:34.069Z,99936.63
2023-05-24T03:43:36.026Z,99944.47
2023-05-24T03:58:38.054Z,99939.13
2023-05-24T04:13:39.925Z,99929.34
2023-05-24T04:28:42.544Z,99933.09
2023-05-24T04:43:45.138Z,99941.03
2023-05-24T04:58:48.167Z,99948.69
2023-05-24T05:13:50.059Z,99967.28
2023-05-24T05:28:51.996Z,99968.53
2023-05-24T05:43:53.905Z,99981.91
2023-05-24T05:58:56.034Z,99992.59
2023-05-24T06:13:58.110Z,99988.13
2023-05-24T06:29:00.012Z,99984.34
2023-05-24T06:44:02.115Z,99975.19
2023-05-24T06:59:04.163Z,99975.31
2023-05-24T07:14:06.110Z,99969.97
2023-05-24T07:29:08.806Z,99984.19
2023-05-24T07:44:12.310Z,99981.56
2023-05-24T07:59:15.745Z,99979.31
2023-05-24T08:14:17.732Z,99979.53
2023-05-24T08:29:19.496Z,99945.75
2023-05-24T08:44:23.673Z,99952.25
2023-05-24T08:59:26.073Z,99952.91
2023-05-24T09:14:28.130Z,99946.16
2023-05-24T09:29:30.035Z,99952.34
2023-05-24T09:44:32.325Z,99981.28
2023-05-24T09:59:37.058Z,99973.91
2023-05-24T10:14:39.452Z,99976.50
2023-05-24T10:29:47.210Z,100002.03
2023-05-24T10:44:49.181Z,100002.53
2023-05-24T10:59:51.770Z,99996.47
2023-05-24T11:14:53.720Z,100003.69
2023-05-24T11:29:59.310Z,99999.31
2023-05-24T11:45:01.347Z,99983.31
2023-05-24T12:00:05.033Z,99960.09
2023-05-24T12:15:08.517Z,99953.56
2023-05-24T12:30:18.898Z,99939.66
2023-05-24T12:45:26.102Z,99939.81
2023-05-24T13:00:29.570Z,99946.69
2023-05-24T13:15:32.436Z,99937.47
2023-05-24T13:30:34.869Z,99960.28
2023-05-24T13:45:36.940Z,99942.94
2023-05-24T14:00:42.932Z,99936.94
2023-05-24T14:15:49.936Z,99922.69
2023-05-24T14:30:52.264Z,99919.84
2023-05-24T14:45:54.340Z,99928.56
2023-05-24T15:00:56.495Z,99931.47
2023-05-24T15:16:00.731Z,99923.69
2023-05-24T15:31:07.988Z,99915.56
2023-05-24T15:46:10.098Z,99915.16
2023-05-24T16:01:12.189Z,99909.75
2023-05-24T16:16:16.570Z,99920.16
2023-05-24T16:31:18.645Z,99916.13
2023-05-24T16:46:21.236Z,99914.81
2023-05-24T17:01:23.457Z,99932.81
2023-05-24T17:16:28.287Z,99969.44
2023-05-24T17:31:30.310Z,99979.13
2023-05-24T17:46:36.038Z,99996.22
2023-05-24T18:01:39.090Z,100025.09
2023-05-24T18:16:41.192Z,100039.91
2023-05-24T18:31:43.308Z,100039.28
2023-05-24T18:46:45.325Z,100030.56
2023-05-24T19:01:47.939Z,100053.00
2023-05-24T19:16:50.007Z,100081.53
2023-05-24T19:31:54.259Z,100073.22
2023-05-24T19:46:56.417Z,100053.88
2023-05-24T20:01:58.766Z,100072.78
2023-05-24T20:17:01.487Z,100068.13
2023-05-24T20:32:47.050Z,100065.66
2023-05-24T20:47:49.097Z,100046.78
2023-05-24T21:02:51.753Z,100037.47
2023-05-24T21:17:54.221Z,100024.25
2023-05-24T21:32:56.262Z,100029.22
2023-05-24T21:47:58.341Z,100032.41
2023-05-24T22:03:00.626Z,100019.31
2023-05-24T22:18:02.835Z,100012.09
2023-05-24T22:33:05.121Z,100013.28
2023-05-24T22:48:07.930Z,100042.13
2023-05-24T23:03:10.056Z,100052.00
2023-05-24T23:18:16.209Z,100045.66
2023-05-24T23:33:18.337Z,100060.53
2023-05-24T23:48:22.066Z,100080.84
